sensor_id;sensor_type;location;lat;lon;timestamp;P1;durP1;ratioP1;P2;durP2;ratioP2
13981;SDS011;7065;50.880;5.502;2022-11-03T00:00:29;12.27;;;2.17;;
13981;SDS011;7065;50.880;5.502;2022-11-03T00:02:54;10.52;;;2.10;;
13981;SDS011;7065;50.880;5.502;2022-11-03T00:05:20;7.95;;;2.22;;
13981;SDS011;7065;50.880;5.502;2022-11-03T00:08:04;14.82;;;2.75;;
13981;SDS011;7065;50.880;5.502;2022-11-03T00:10:30;14.00;;;2.80;;
13981;SDS011;7065;50.880;5.502;2022-11-03T00:12:56;9.40;;;2.63;;
13981;SDS011;7065;50.880;5.502;2022-11-03T00:15:21;9.45;;;2.85;;
13981;SDS011;7065;50.880;5.502;2022-11-03T00:17:47;9.07;;;2.70;;
13981;SDS011;7065;50.880;5.502;2022-11-03T00:20:12;11.02;;;2.90;;
13981;SDS011;7065;50.880;5.502;2022-11-03T00:22:38;11.32;;;2.92;;
13981;SDS011;7065;50.880;5.502;2022-11-03T00:25:04;9.35;;;2.53;;
13981;SDS011;7065;50.880;5.502;2022-11-03T00:27:30;13.93;;;2.45;;
13981;SDS011;7065;50.880;5.502;2022-11-03T00:29:56;10.05;;;3.00;;
13981;SDS011;7065;50.880;5.502;2022-11-03T00:32:22;7.97;;;2.60;;
13981;SDS011;7065;50.880;5.502;2022-11-03T00:34:48;9.90;;;2.78;;
13981;SDS011;7065;50.880;5.502;2022-11-03T00:37:14;8.38;;;2.58;;
13981;SDS011;7065;50.880;5.502;2022-11-03T00:39:39;10.60;;;2.88;;
13981;SDS011;7065;50.880;5.502;2022-11-03T00:42:05;6.43;;;2.80;;
13981;SDS011;7065;50.880;5.502;2022-11-03T00:44:31;10.85;;;2.70;;
13981;SDS011;7065;50.880;5.502;2022-11-03T00:46:56;13.15;;;3.28;;
13981;SDS011;7065;50.880;5.502;2022-11-03T00:49:22;10.43;;;2.40;;
13981;SDS011;7065;50.880;5.502;2022-11-03T00:51:48;8.48;;;2.30;;
13981;SDS011;7065;50.880;5.502;2022-11-03T00:54:13;7.75;;;2.75;;
13981;SDS011;7065;50.880;5.502;2022-11-03T00:56:39;7.57;;;2.17;;
13981;SDS011;7065;50.880;5.502;2022-11-03T00:59:06;9.23;;;2.42;;
13981;SDS011;7065;50.880;5.502;2022-11-03T01:04:06;7.65;;;2.42;;
13981;SDS011;7065;50.880;5.502;2022-11-03T01:06:51;9.93;;;2.53;;
13981;SDS011;7065;50.880;5.502;2022-11-03T01:09:19;8.48;;;2.28;;
13981;SDS011;7065;50.880;5.502;2022-11-03T01:12:00;8.27;;;2.20;;
13981;SDS011;7065;50.880;5.502;2022-11-03T01:16:59;7.40;;;2.42;;
13981;SDS011;7065;50.880;5.502;2022-11-03T01:19:26;6.63;;;2.30;;
13981;SDS011;7065;50.880;5.502;2022-11-03T01:21:52;11.73;;;2.50;;
13981;SDS011;7065;50.880;5.502;2022-11-03T01:24:18;9.73;;;3.00;;
13981;SDS011;7065;50.880;5.502;2022-11-03T01:26:43;8.18;;;2.40;;
13981;SDS011;7065;50.880;5.502;2022-11-03T01:29:09;10.45;;;2.80;;
13981;SDS011;7065;50.880;5.502;2022-11-03T01:31:34;5.97;;;2.45;;
13981;SDS011;7065;50.880;5.502;2022-11-03T01:34:00;6.80;;;2.10;;
13981;SDS011;7065;50.880;5.502;2022-11-03T01:36:26;8.30;;;2.80;;
13981;SDS011;7065;50.880;5.502;2022-11-03T01:38:52;7.13;;;1.88;;
13981;SDS011;7065;50.880;5.502;2022-11-03T01:41:21;11.95;;;2.50;;
13981;SDS011;7065;50.880;5.502;2022-11-03T01:44:21;8.35;;;2.58;;
13981;SDS011;7065;50.880;5.502;2022-11-03T01:46:45;15.80;;;2.53;;
13981;SDS011;7065;50.880;5.502;2022-11-03T01:49:15;7.00;;;2.15;;
13981;SDS011;7065;50.880;5.502;2022-11-03T01:51:50;7.70;;;2.78;;
13981;SDS011;7065;50.880;5.502;2022-11-03T01:54:23;12.55;;;2.83;;
13981;SDS011;7065;50.880;5.502;2022-11-03T01:56:51;14.60;;;2.58;;
13981;SDS011;7065;50.880;5.502;2022-11-03T01:59:19;10.32;;;2.30;;
13981;SDS011;7065;50.880;5.502;2022-11-03T02:01:47;9.40;;;2.60;;
13981;SDS011;7065;50.880;5.502;2022-11-03T02:04:15;8.98;;;2.38;;
13981;SDS011;7065;50.880;5.502;2022-11-03T02:06:57;7.75;;;2.28;;
13981;SDS011;7065;50.880;5.502;2022-11-03T02:09:53;7.53;;;2.05;;
13981;SDS011;7065;50.880;5.502;2022-11-03T02:12:20;8.48;;;2.25;;
13981;SDS011;7065;50.880;5.502;2022-11-03T02:15:04;8.57;;;2.55;;
13981;SDS011;7065;50.880;5.502;2022-11-03T02:17:35;9.27;;;2.40;;
13981;SDS011;7065;50.880;5.502;2022-11-03T02:20:09;6.55;;;2.40;;
13981;SDS011;7065;50.880;5.502;2022-11-03T02:25:54;9.07;;;2.20;;
13981;SDS011;7065;50.880;5.502;2022-11-03T02:28:29;5.85;;;2.38;;
13981;SDS011;7065;50.880;5.502;2022-11-03T02:30:58;7.78;;;2.47;;
13981;SDS011;7065;50.880;5.502;2022-11-03T02:33:58;6.60;;;2.10;;
13981;SDS011;7065;50.880;5.502;2022-11-03T02:39:21;8.02;;;2.22;;
13981;SDS011;7065;50.880;5.502;2022-11-03T02:41:52;7.82;;;2.78;;
13981;SDS011;7065;50.880;5.502;2022-11-03T02:44:21;7.32;;;2.20;;
13981;SDS011;7065;50.880;5.502;2022-11-03T02:46:51;7.20;;;2.75;;
13981;SDS011;7065;50.880;5.502;2022-11-03T02:49:28;6.75;;;2.25;;
13981;SDS011;7065;50.880;5.502;2022-11-03T02:52:00;9.18;;;2.75;;
13981;SDS011;7065;50.880;5.502;2022-11-03T02:54:47;10.75;;;2.42;;
13981;SDS011;7065;50.880;5.502;2022-11-03T02:57:17;8.60;;;2.60;;
13981;SDS011;7065;50.880;5.502;2022-11-03T02:59:55;8.95;;;2.58;;
13981;SDS011;7065;50.880;5.502;2022-11-03T03:02:27;10.93;;;2.50;;
13981;SDS011;7065;50.880;5.502;2022-11-03T03:04:59;7.22;;;2.20;;
13981;SDS011;7065;50.880;5.502;2022-11-03T03:07:29;9.90;;;2.30;;
13981;SDS011;7065;50.880;5.502;2022-11-03T03:10:05;7.60;;;2.38;;
13981;SDS011;7065;50.880;5.502;2022-11-03T03:12:35;6.28;;;2.67;;
13981;SDS011;7065;50.880;5.502;2022-11-03T03:15:04;8.07;;;2.55;;
13981;SDS011;7065;50.880;5.502;2022-11-03T03:17:48;8.00;;;2.92;;
13981;SDS011;7065;50.880;5.502;2022-11-03T03:20:22;10.48;;;3.83;;
13981;SDS011;7065;50.880;5.502;2022-11-03T03:22:54;9.27;;;2.40;;
13981;SDS011;7065;50.880;5.502;2022-11-03T03:25:33;12.55;;;2.80;;
13981;SDS011;7065;50.880;5.502;2022-11-03T03:28:08;10.02;;;2.90;;
13981;SDS011;7065;50.880;5.502;2022-11-03T03:30:39;8.77;;;2.28;;
13981;SDS011;7065;50.880;5.502;2022-11-03T03:33:07;14.93;;;2.60;;
13981;SDS011;7065;50.880;5.502;2022-11-03T03:35:35;8.23;;;2.90;;
13981;SDS011;7065;50.880;5.502;2022-11-03T03:38:04;8.40;;;1.98;;
13981;SDS011;7065;50.880;5.502;2022-11-03T03:40:36;7.95;;;2.80;;
13981;SDS011;7065;50.880;5.502;2022-11-03T03:43:05;9.38;;;2.50;;
13981;SDS011;7065;50.880;5.502;2022-11-03T03:45:33;8.68;;;2.92;;
13981;SDS011;7065;50.880;5.502;2022-11-03T03:48:00;9.40;;;2.92;;
13981;SDS011;7065;50.880;5.502;2022-11-03T03:50:28;7.90;;;2.28;;
13981;SDS011;7065;50.880;5.502;2022-11-03T03:52:59;8.52;;;2.65;;
13981;SDS011;7065;50.880;5.502;2022-11-03T03:55:32;10.00;;;3.17;;
13981;SDS011;7065;50.880;5.502;2022-11-03T03:58:01;7.53;;;2.70;;
13981;SDS011;7065;50.880;5.502;2022-11-03T04:00:28;7.90;;;2.67;;
13981;SDS011;7065;50.880;5.502;2022-11-03T04:02:57;10.57;;;2.90;;
13981;SDS011;7065;50.880;5.502;2022-11-03T04:05:26;10.20;;;2.65;;
13981;SDS011;7065;50.880;5.502;2022-11-03T04:07:52;8.35;;;2.45;;
13981;SDS011;7065;50.880;5.502;2022-11-03T04:10:19;8.02;;;2.90;;
13981;SDS011;7065;50.880;5.502;2022-11-03T04:12:46;6.10;;;2.40;;
13981;SDS011;7065;50.880;5.502;2022-11-03T04:15:30;6.93;;;2.50;;
13981;SDS011;7065;50.880;5.502;2022-11-03T04:18:15;9.20;;;2.45;;
13981;SDS011;7065;50.880;5.502;2022-11-03T04:21:00;6.88;;;2.33;;
13981;SDS011;7065;50.880;5.502;2022-11-03T04:23:45;10.63;;;2.60;;
13981;SDS011;7065;50.880;5.502;2022-11-03T04:26:12;10.50;;;2.33;;
13981;SDS011;7065;50.880;5.502;2022-11-03T04:28:42;7.43;;;2.65;;
13981;SDS011;7065;50.880;5.502;2022-11-03T04:31:12;7.65;;;2.20;;
13981;SDS011;7065;50.880;5.502;2022-11-03T04:33:39;7.22;;;2.72;;
13981;SDS011;7065;50.880;5.502;2022-11-03T04:36:19;6.40;;;2.22;;
13981;SDS011;7065;50.880;5.502;2022-11-03T04:38:46;7.93;;;2.55;;
13981;SDS011;7065;50.880;5.502;2022-11-03T04:43:47;9.77;;;2.40;;
13981;SDS011;7065;50.880;5.502;2022-11-03T04:46:15;9.43;;;2.40;;
13981;SDS011;7065;50.880;5.502;2022-11-03T04:48:47;7.80;;;2.33;;
13981;SDS011;7065;50.880;5.502;2022-11-03T04:51:17;9.35;;;2.90;;
13981;SDS011;7065;50.880;5.502;2022-11-03T04:53:54;6.72;;;2.10;;
13981;SDS011;7065;50.880;5.502;2022-11-03T04:56:25;11.15;;;2.95;;
13981;SDS011;7065;50.880;5.502;2022-11-03T04:58:51;9.65;;;2.58;;
13981;SDS011;7065;50.880;5.502;2022-11-03T05:01:18;6.13;;;2.40;;
13981;SDS011;7065;50.880;5.502;2022-11-03T05:03:46;10.18;;;2.28;;
13981;SDS011;7065;50.880;5.502;2022-11-03T05:06:18;9.10;;;2.38;;
13981;SDS011;7065;50.880;5.502;2022-11-03T05:08:51;8.27;;;2.55;;
13981;SDS011;7065;50.880;5.502;2022-11-03T05:11:21;8.20;;;2.33;;
13981;SDS011;7065;50.880;5.502;2022-11-03T05:14:00;7.57;;;2.17;;
13981;SDS011;7065;50.880;5.502;2022-11-03T05:16:30;9.38;;;2.80;;
13981;SDS011;7065;50.880;5.502;2022-11-03T05:18:56;11.77;;;2.47;;
13981;SDS011;7065;50.880;5.502;2022-11-03T05:21:23;10.43;;;2.90;;
13981;SDS011;7065;50.880;5.502;2022-11-03T05:23:55;4.97;;;1.92;;
13981;SDS011;7065;50.880;5.502;2022-11-03T05:26:30;7.75;;;2.35;;
13981;SDS011;7065;50.880;5.502;2022-11-03T05:29:02;12.10;;;2.80;;
13981;SDS011;7065;50.880;5.502;2022-11-03T05:31:33;8.45;;;2.67;;
13981;SDS011;7065;50.880;5.502;2022-11-03T05:34:01;8.02;;;2.72;;
13981;SDS011;7065;50.880;5.502;2022-11-03T05:36:39;8.85;;;2.10;;
13981;SDS011;7065;50.880;5.502;2022-11-03T05:39:18;8.68;;;2.53;;
13981;SDS011;7065;50.880;5.502;2022-11-03T05:41:58;10.02;;;3.00;;
13981;SDS011;7065;50.880;5.502;2022-11-03T05:44:28;7.47;;;2.30;;
13981;SDS011;7065;50.880;5.502;2022-11-03T05:46:58;4.63;;;2.25;;
13981;SDS011;7065;50.880;5.502;2022-11-03T05:49:26;7.00;;;2.55;;
13981;SDS011;7065;50.880;5.502;2022-11-03T05:51:52;10.80;;;2.85;;
13981;SDS011;7065;50.880;5.502;2022-11-03T05:54:23;8.95;;;2.30;;
13981;SDS011;7065;50.880;5.502;2022-11-03T05:56:52;6.85;;;2.90;;
13981;SDS011;7065;50.880;5.502;2022-11-03T05:59:19;8.00;;;2.53;;
13981;SDS011;7065;50.880;5.502;2022-11-03T06:01:48;7.90;;;2.28;;
13981;SDS011;7065;50.880;5.502;2022-11-03T06:06:58;9.48;;;2.70;;
13981;SDS011;7065;50.880;5.502;2022-11-03T06:09:33;7.13;;;1.98;;
13981;SDS011;7065;50.880;5.502;2022-11-03T06:11:59;13.13;;;2.80;;
13981;SDS011;7065;50.880;5.502;2022-11-03T06:14:29;8.85;;;1.88;;
13981;SDS011;7065;50.880;5.502;2022-11-03T06:17:01;5.90;;;2.78;;
13981;SDS011;7065;50.880;5.502;2022-11-03T06:22:03;8.80;;;2.38;;
13981;SDS011;7065;50.880;5.502;2022-11-03T06:24:39;9.45;;;2.60;;
13981;SDS011;7065;50.880;5.502;2022-11-03T06:27:07;5.95;;;2.10;;
13981;SDS011;7065;50.880;5.502;2022-11-03T06:29:37;9.48;;;2.88;;
13981;SDS011;7065;50.880;5.502;2022-11-03T06:32:02;7.03;;;1.95;;
13981;SDS011;7065;50.880;5.502;2022-11-03T06:34:40;8.07;;;2.40;;
13981;SDS011;7065;50.880;5.502;2022-11-03T06:39:47;7.03;;;2.30;;
13981;SDS011;7065;50.880;5.502;2022-11-03T06:42:15;7.57;;;2.00;;
13981;SDS011;7065;50.880;5.502;2022-11-03T06:44:47;8.25;;;2.88;;
13981;SDS011;7065;50.880;5.502;2022-11-03T06:47:24;5.07;;;2.05;;
13981;SDS011;7065;50.880;5.502;2022-11-03T06:49:57;8.77;;;2.35;;
13981;SDS011;7065;50.880;5.502;2022-11-03T06:52:31;7.53;;;2.47;;
13981;SDS011;7065;50.880;5.502;2022-11-03T06:54:59;9.65;;;2.53;;
13981;SDS011;7065;50.880;5.502;2022-11-03T06:57:25;7.75;;;2.33;;
13981;SDS011;7065;50.880;5.502;2022-11-03T06:59:59;7.40;;;2.40;;
13981;SDS011;7065;50.880;5.502;2022-11-03T07:03:26;7.53;;;1.90;;
13981;SDS011;7065;50.880;5.502;2022-11-03T07:05:32;10.25;;;2.53;;
13981;SDS011;7065;50.880;5.502;2022-11-03T07:07:59;7.82;;;2.17;;
13981;SDS011;7065;50.880;5.502;2022-11-03T07:10:29;9.32;;;2.50;;
13981;SDS011;7065;50.880;5.502;2022-11-03T07:13:05;9.20;;;2.25;;
13981;SDS011;7065;50.880;5.502;2022-11-03T07:15:39;7.60;;;2.13;;
13981;SDS011;7065;50.880;5.502;2022-11-03T07:18:27;8.50;;;2.38;;
13981;SDS011;7065;50.880;5.502;2022-11-03T07:20:55;9.57;;;2.15;;
13981;SDS011;7065;50.880;5.502;2022-11-03T07:23:23;7.55;;;2.25;;
13981;SDS011;7065;50.880;5.502;2022-11-03T07:25:52;6.43;;;1.92;;
13981;SDS011;7065;50.880;5.502;2022-11-03T07:28:24;7.75;;;2.38;;
13981;SDS011;7065;50.880;5.502;2022-11-03T07:30:57;6.13;;;2.17;;
13981;SDS011;7065;50.880;5.502;2022-11-03T07:33:25;8.77;;;2.25;;
13981;SDS011;7065;50.880;5.502;2022-11-03T07:35:53;7.63;;;2.28;;
13981;SDS011;7065;50.880;5.502;2022-11-03T07:38:21;8.10;;;2.75;;
13981;SDS011;7065;50.880;5.502;2022-11-03T07:40:50;6.07;;;2.15;;
13981;SDS011;7065;50.880;5.502;2022-11-03T07:43:17;8.48;;;2.53;;
13981;SDS011;7065;50.880;5.502;2022-11-03T07:45:50;8.43;;;2.58;;
13981;SDS011;7065;50.880;5.502;2022-11-03T07:50:53;4.90;;;2.30;;
13981;SDS011;7065;50.880;5.502;2022-11-03T07:53:39;6.22;;;2.20;;
13981;SDS011;7065;50.880;5.502;2022-11-03T07:58:50;8.02;;;2.17;;
13981;SDS011;7065;50.880;5.502;2022-11-03T08:01:21;8.25;;;2.33;;
13981;SDS011;7065;50.880;5.502;2022-11-03T08:03:49;9.27;;;2.30;;
13981;SDS011;7065;50.880;5.502;2022-11-03T08:06:15;7.15;;;2.33;;
13981;SDS011;7065;50.880;5.502;2022-11-03T08:08:40;8.00;;;3.03;;
13981;SDS011;7065;50.880;5.502;2022-11-03T08:11:06;8.50;;;1.90;;
13981;SDS011;7065;50.880;5.502;2022-11-03T08:13:32;8.55;;;3.00;;
13981;SDS011;7065;50.880;5.502;2022-11-03T08:15:58;6.75;;;2.42;;
13981;SDS011;7065;50.880;5.502;2022-11-03T08:18:24;7.53;;;2.47;;
13981;SDS011;7065;50.880;5.502;2022-11-03T08:20:49;7.68;;;2.35;;
13981;SDS011;7065;50.880;5.502;2022-11-03T08:23:15;6.75;;;2.20;;
13981;SDS011;7065;50.880;5.502;2022-11-03T08:25:41;4.85;;;2.08;;
13981;SDS011;7065;50.880;5.502;2022-11-03T08:28:07;4.38;;;2.15;;
13981;SDS011;7065;50.880;5.502;2022-11-03T08:30:33;6.82;;;2.40;;
13981;SDS011;7065;50.880;5.502;2022-11-03T08:32:59;11.85;;;2.65;;
13981;SDS011;7065;50.880;5.502;2022-11-03T08:35:25;5.78;;;1.67;;
13981;SDS011;7065;50.880;5.502;2022-11-03T08:37:51;7.55;;;1.60;;
13981;SDS011;7065;50.880;5.502;2022-11-03T08:40:16;7.05;;;2.05;;
13981;SDS011;7065;50.880;5.502;2022-11-03T08:42:42;4.78;;;1.92;;
13981;SDS011;7065;50.880;5.502;2022-11-03T08:45:08;5.90;;;2.17;;
13981;SDS011;7065;50.880;5.502;2022-11-03T08:47:35;6.60;;;2.00;;
13981;SDS011;7065;50.880;5.502;2022-11-03T08:50:01;3.90;;;2.05;;
13981;SDS011;7065;50.880;5.502;2022-11-03T08:52:27;5.15;;;2.10;;
13981;SDS011;7065;50.880;5.502;2022-11-03T08:54:53;6.63;;;2.30;;
13981;SDS011;7065;50.880;5.502;2022-11-03T08:57:18;4.82;;;2.25;;
13981;SDS011;7065;50.880;5.502;2022-11-03T08:59:44;5.55;;;2.40;;
13981;SDS011;7065;50.880;5.502;2022-11-03T09:02:10;7.13;;;2.40;;
13981;SDS011;7065;50.880;5.502;2022-11-03T09:04:36;7.35;;;1.88;;
13981;SDS011;7065;50.880;5.502;2022-11-03T09:07:02;5.47;;;2.00;;
13981;SDS011;7065;50.880;5.502;2022-11-03T09:09:27;7.72;;;2.13;;
13981;SDS011;7065;50.880;5.502;2022-11-03T09:11:53;13.18;;;2.50;;
13981;SDS011;7065;50.880;5.502;2022-11-03T09:14:19;4.53;;;2.10;;
13981;SDS011;7065;50.880;5.502;2022-11-03T09:16:44;6.75;;;3.05;;
13981;SDS011;7065;50.880;5.502;2022-11-03T09:19:10;8.40;;;4.63;;
13981;SDS011;7065;50.880;5.502;2022-11-03T09:21:36;6.90;;;2.63;;
13981;SDS011;7065;50.880;5.502;2022-11-03T09:24:01;3.92;;;1.63;;
13981;SDS011;7065;50.880;5.502;2022-11-03T09:26:27;5.22;;;1.90;;
13981;SDS011;7065;50.880;5.502;2022-11-03T09:28:53;4.80;;;1.80;;
13981;SDS011;7065;50.880;5.502;2022-11-03T09:31:19;6.82;;;2.78;;
13981;SDS011;7065;50.880;5.502;2022-11-03T09:33:44;4.82;;;2.15;;
13981;SDS011;7065;50.880;5.502;2022-11-03T09:36:10;4.13;;;2.13;;
13981;SDS011;7065;50.880;5.502;2022-11-03T09:38:36;8.57;;;2.85;;
13981;SDS011;7065;50.880;5.502;2022-11-03T09:41:02;5.85;;;2.95;;
13981;SDS011;7065;50.880;5.502;2022-11-03T09:43:30;4.78;;;2.50;;
13981;SDS011;7065;50.880;5.502;2022-11-03T09:45:56;5.80;;;1.92;;
13981;SDS011;7065;50.880;5.502;2022-11-03T09:48:23;4.85;;;1.75;;
13981;SDS011;7065;50.880;5.502;2022-11-03T09:50:50;4.57;;;1.98;;
13981;SDS011;7065;50.880;5.502;2022-11-03T09:53:18;4.63;;;1.70;;
13981;SDS011;7065;50.880;5.502;2022-11-03T09:55:45;4.18;;;1.92;;
13981;SDS011;7065;50.880;5.502;2022-11-03T09:58:14;4.20;;;1.77;;
13981;SDS011;7065;50.880;5.502;2022-11-03T10:00:41;7.05;;;2.45;;
13981;SDS011;7065;50.880;5.502;2022-11-03T10:03:11;5.32;;;2.35;;
13981;SDS011;7065;50.880;5.502;2022-11-03T10:05:38;6.15;;;2.67;;
13981;SDS011;7065;50.880;5.502;2022-11-03T10:08:06;6.53;;;2.33;;
13981;SDS011;7065;50.880;5.502;2022-11-03T10:10:36;6.60;;;2.15;;
13981;SDS011;7065;50.880;5.502;2022-11-03T10:13:04;5.40;;;2.88;;
13981;SDS011;7065;50.880;5.502;2022-11-03T10:15:36;4.82;;;1.92;;
13981;SDS011;7065;50.880;5.502;2022-11-03T10:18:03;7.47;;;4.20;;
13981;SDS011;7065;50.880;5.502;2022-11-03T10:20:30;6.97;;;4.70;;
13981;SDS011;7065;50.880;5.502;2022-11-03T10:22:56;7.80;;;3.90;;
13981;SDS011;7065;50.880;5.502;2022-11-03T10:33:23;6.40;;;2.53;;
13981;SDS011;7065;50.880;5.502;2022-11-03T10:36:00;4.35;;;2.10;;
13981;SDS011;7065;50.880;5.502;2022-11-03T10:38:28;5.10;;;2.22;;
13981;SDS011;7065;50.880;5.502;2022-11-03T10:40:56;3.75;;;1.80;;
13981;SDS011;7065;50.880;5.502;2022-11-03T10:43:41;5.45;;;1.40;;
13981;SDS011;7065;50.880;5.502;2022-11-03T10:46:15;5.75;;;2.10;;
13981;SDS011;7065;50.880;5.502;2022-11-03T10:48:43;7.63;;;2.50;;
13981;SDS011;7065;50.880;5.502;2022-11-03T10:51:12;5.28;;;1.60;;
13981;SDS011;7065;50.880;5.502;2022-11-03T10:53:38;4.20;;;2.10;;
13981;SDS011;7065;50.880;5.502;2022-11-03T10:56:06;5.05;;;1.90;;
13981;SDS011;7065;50.880;5.502;2022-11-03T10:58:32;4.13;;;1.80;;
13981;SDS011;7065;50.880;5.502;2022-11-03T11:00:59;4.35;;;1.67;;
13981;SDS011;7065;50.880;5.502;2022-11-03T11:03:25;2.28;;;1.40;;
13981;SDS011;7065;50.880;5.502;2022-11-03T11:05:50;5.00;;;2.10;;
13981;SDS011;7065;50.880;5.502;2022-11-03T11:08:20;5.47;;;1.70;;
13981;SDS011;7065;50.880;5.502;2022-11-03T11:10:47;5.90;;;1.90;;
13981;SDS011;7065;50.880;5.502;2022-11-03T11:18:08;3.92;;;2.08;;
13981;SDS011;7065;50.880;5.502;2022-11-03T11:20:35;3.92;;;1.83;;
13981;SDS011;7065;50.880;5.502;2022-11-03T11:28:38;7.32;;;1.90;;
13981;SDS011;7065;50.880;5.502;2022-11-03T11:36:45;4.93;;;1.90;;
13981;SDS011;7065;50.880;5.502;2022-11-03T11:55:02;5.53;;;2.30;;
13981;SDS011;7065;50.880;5.502;2022-11-03T11:57:29;3.40;;;2.00;;
13981;SDS011;7065;50.880;5.502;2022-11-03T11:59:58;4.70;;;2.00;;
13981;SDS011;7065;50.880;5.502;2022-11-03T12:02:26;3.95;;;1.98;;
13981;SDS011;7065;50.880;5.502;2022-11-03T12:04:56;4.15;;;2.15;;
13981;SDS011;7065;50.880;5.502;2022-11-03T12:07:34;4.85;;;2.05;;
13981;SDS011;7065;50.880;5.502;2022-11-03T12:12:50;3.88;;;1.90;;
13981;SDS011;7065;50.880;5.502;2022-11-03T12:18:28;5.43;;;1.92;;
13981;SDS011;7065;50.880;5.502;2022-11-03T12:20:58;5.45;;;2.05;;
13981;SDS011;7065;50.880;5.502;2022-11-03T12:23:32;4.95;;;1.92;;
13981;SDS011;7065;50.880;5.502;2022-11-03T12:25:59;4.90;;;1.63;;
13981;SDS011;7065;50.880;5.502;2022-11-03T12:28:34;5.93;;;1.90;;
13981;SDS011;7065;50.880;5.502;2022-11-03T12:31:01;4.38;;;1.83;;
13981;SDS011;7065;50.880;5.502;2022-11-03T12:33:28;4.97;;;1.80;;
13981;SDS011;7065;50.880;5.502;2022-11-03T12:35:54;5.60;;;1.92;;
13981;SDS011;7065;50.880;5.502;2022-11-03T12:38:20;5.22;;;2.35;;
13981;SDS011;7065;50.880;5.502;2022-11-03T12:40:46;4.68;;;2.40;;
13981;SDS011;7065;50.880;5.502;2022-11-03T12:43:12;5.40;;;1.73;;
13981;SDS011;7065;50.880;5.502;2022-11-03T12:45:38;3.15;;;1.90;;
13981;SDS011;7065;50.880;5.502;2022-11-03T12:48:05;5.78;;;2.15;;
13981;SDS011;7065;50.880;5.502;2022-11-03T12:50:31;3.70;;;2.25;;
13981;SDS011;7065;50.880;5.502;2022-11-03T12:52:57;7.25;;;2.13;;
13981;SDS011;7065;50.880;5.502;2022-11-03T12:55:23;4.22;;;2.10;;
13981;SDS011;7065;50.880;5.502;2022-11-03T12:57:49;7.05;;;2.28;;
13981;SDS011;7065;50.880;5.502;2022-11-03T13:00:15;3.35;;;1.80;;
13981;SDS011;7065;50.880;5.502;2022-11-03T13:02:42;4.00;;;2.13;;
13981;SDS011;7065;50.880;5.502;2022-11-03T13:05:08;7.88;;;2.03;;
13981;SDS011;7065;50.880;5.502;2022-11-03T13:07:34;2.58;;;1.77;;
13981;SDS011;7065;50.880;5.502;2022-11-03T13:09:59;3.72;;;1.60;;
13981;SDS011;7065;50.880;5.502;2022-11-03T13:12:25;4.22;;;1.88;;
13981;SDS011;7065;50.880;5.502;2022-11-03T13:14:57;3.20;;;1.88;;
13981;SDS011;7065;50.880;5.502;2022-11-03T13:17:24;4.93;;;2.17;;
13981;SDS011;7065;50.880;5.502;2022-11-03T13:19:50;4.55;;;2.05;;
13981;SDS011;7065;50.880;5.502;2022-11-03T13:22:16;5.20;;;1.90;;
13981;SDS011;7065;50.880;5.502;2022-11-03T13:24:42;3.15;;;1.80;;
13981;SDS011;7065;50.880;5.502;2022-11-03T13:27:07;5.50;;;2.10;;
13981;SDS011;7065;50.880;5.502;2022-11-03T13:29:33;3.80;;;1.90;;
13981;SDS011;7065;50.880;5.502;2022-11-03T13:31:59;4.68;;;2.10;;
13981;SDS011;7065;50.880;5.502;2022-11-03T13:34:24;4.55;;;2.10;;
13981;SDS011;7065;50.880;5.502;2022-11-03T13:36:50;4.00;;;1.80;;
13981;SDS011;7065;50.880;5.502;2022-11-03T13:39:15;4.32;;;2.10;;
13981;SDS011;7065;50.880;5.502;2022-11-03T13:41:41;4.57;;;2.00;;
13981;SDS011;7065;50.880;5.502;2022-11-03T13:44:07;6.28;;;2.13;;
13981;SDS011;7065;50.880;5.502;2022-11-03T13:46:33;3.65;;;2.00;;
13981;SDS011;7065;50.880;5.502;2022-11-03T13:48:58;3.35;;;1.73;;
13981;SDS011;7065;50.880;5.502;2022-11-03T13:51:24;3.63;;;1.67;;
13981;SDS011;7065;50.880;5.502;2022-11-03T13:53:50;3.00;;;1.80;;
13981;SDS011;7065;50.880;5.502;2022-11-03T13:56:16;3.83;;;1.77;;
13981;SDS011;7065;50.880;5.502;2022-11-03T13:58:42;4.43;;;2.15;;
13981;SDS011;7065;50.880;5.502;2022-11-03T14:01:07;4.10;;;1.95;;
13981;SDS011;7065;50.880;5.502;2022-11-03T14:03:33;4.22;;;2.25;;
13981;SDS011;7065;50.880;5.502;2022-11-03T14:05:59;4.28;;;2.17;;
13981;SDS011;7065;50.880;5.502;2022-11-03T14:08:24;3.50;;;1.95;;
13981;SDS011;7065;50.880;5.502;2022-11-03T14:10:50;3.50;;;2.20;;
13981;SDS011;7065;50.880;5.502;2022-11-03T14:13:15;3.35;;;2.00;;
13981;SDS011;7065;50.880;5.502;2022-11-03T14:15:41;5.18;;;2.00;;
13981;SDS011;7065;50.880;5.502;2022-11-03T14:18:07;2.60;;;2.08;;
13981;SDS011;7065;50.880;5.502;2022-11-03T14:20:33;5.80;;;2.45;;
13981;SDS011;7065;50.880;5.502;2022-11-03T14:22:58;4.78;;;2.05;;
13981;SDS011;7065;50.880;5.502;2022-11-03T14:25:24;3.05;;;2.28;;
13981;SDS011;7065;50.880;5.502;2022-11-03T14:27:50;3.83;;;2.22;;
13981;SDS011;7065;50.880;5.502;2022-11-03T14:30:15;5.00;;;2.05;;
13981;SDS011;7065;50.880;5.502;2022-11-03T14:32:41;4.75;;;2.38;;
13981;SDS011;7065;50.880;5.502;2022-11-03T14:35:08;4.63;;;2.42;;
13981;SDS011;7065;50.880;5.502;2022-11-03T14:37:34;3.15;;;2.08;;
13981;SDS011;7065;50.880;5.502;2022-11-03T14:39:59;5.90;;;2.40;;
13981;SDS011;7065;50.880;5.502;2022-11-03T14:42:25;5.82;;;2.30;;
13981;SDS011;7065;50.880;5.502;2022-11-03T14:44:51;4.43;;;2.03;;
13981;SDS011;7065;50.880;5.502;2022-11-03T14:47:17;4.93;;;2.13;;
13981;SDS011;7065;50.880;5.502;2022-11-03T14:49:45;6.45;;;2.25;;
13981;SDS011;7065;50.880;5.502;2022-11-03T14:52:11;5.18;;;2.53;;
13981;SDS011;7065;50.880;5.502;2022-11-03T14:54:38;4.45;;;2.30;;
13981;SDS011;7065;50.880;5.502;2022-11-03T14:57:03;2.88;;;2.10;;
13981;SDS011;7065;50.880;5.502;2022-11-03T14:59:29;3.88;;;2.15;;
13981;SDS011;7065;50.880;5.502;2022-11-03T15:01:56;4.28;;;2.10;;
13981;SDS011;7065;50.880;5.502;2022-11-03T15:04:23;3.58;;;2.25;;
13981;SDS011;7065;50.880;5.502;2022-11-03T15:06:49;5.72;;;2.33;;
13981;SDS011;7065;50.880;5.502;2022-11-03T15:09:15;5.30;;;2.35;;
13981;SDS011;7065;50.880;5.502;2022-11-03T15:11:41;6.93;;;2.30;;
13981;SDS011;7065;50.880;5.502;2022-11-03T15:14:09;4.22;;;2.40;;
13981;SDS011;7065;50.880;5.502;2022-11-03T15:16:35;2.95;;;2.22;;
13981;SDS011;7065;50.880;5.502;2022-11-03T15:19:04;3.80;;;2.30;;
13981;SDS011;7065;50.880;5.502;2022-11-03T15:21:31;3.75;;;2.40;;
13981;SDS011;7065;50.880;5.502;2022-11-03T15:23:57;3.00;;;2.03;;
13981;SDS011;7065;50.880;5.502;2022-11-03T15:26:23;4.88;;;2.25;;
13981;SDS011;7065;50.880;5.502;2022-11-03T15:28:49;3.58;;;1.90;;
13981;SDS011;7065;50.880;5.502;2022-11-03T15:31:15;5.03;;;2.33;;
13981;SDS011;7065;50.880;5.502;2022-11-03T15:33:40;4.28;;;2.70;;
13981;SDS011;7065;50.880;5.502;2022-11-03T15:36:06;4.25;;;2.40;;
13981;SDS011;7065;50.880;5.502;2022-11-03T15:38:32;3.70;;;2.90;;
13981;SDS011;7065;50.880;5.502;2022-11-03T15:40:58;3.67;;;2.25;;
13981;SDS011;7065;50.880;5.502;2022-11-03T15:43:43;4.10;;;2.47;;
13981;SDS011;7065;50.880;5.502;2022-11-03T15:46:13;5.30;;;2.50;;
13981;SDS011;7065;50.880;5.502;2022-11-03T15:48:42;3.55;;;2.38;;
13981;SDS011;7065;50.880;5.502;2022-11-03T15:51:09;4.75;;;2.30;;
13981;SDS011;7065;50.880;5.502;2022-11-03T15:53:36;4.70;;;2.92;;
13981;SDS011;7065;50.880;5.502;2022-11-03T15:56:02;4.88;;;2.85;;
13981;SDS011;7065;50.880;5.502;2022-11-03T15:58:28;5.20;;;2.60;;
13981;SDS011;7065;50.880;5.502;2022-11-03T16:00:57;4.30;;;2.65;;
13981;SDS011;7065;50.880;5.502;2022-11-03T16:03:22;4.22;;;2.30;;
13981;SDS011;7065;50.880;5.502;2022-11-03T16:05:48;4.82;;;2.83;;
13981;SDS011;7065;50.880;5.502;2022-11-03T16:08:13;6.20;;;2.75;;
13981;SDS011;7065;50.880;5.502;2022-11-03T16:10:39;5.05;;;3.15;;
13981;SDS011;7065;50.880;5.502;2022-11-03T16:13:05;5.13;;;3.17;;
13981;SDS011;7065;50.880;5.502;2022-11-03T16:15:31;4.57;;;3.03;;
13981;SDS011;7065;50.880;5.502;2022-11-03T16:17:57;5.57;;;2.95;;
13981;SDS011;7065;50.880;5.502;2022-11-03T16:20:27;5.63;;;3.25;;
13981;SDS011;7065;50.880;5.502;2022-11-03T16:22:56;6.68;;;2.75;;